sensor_id;sensor_type;location;lat;lon;timestamp;P1;durP1;ratioP1;P2;durP2;ratioP2
41229;SDS011;26964;50.428;19.218;2023-07-20T00:00:00;11.2;;;6.1;;
41229;SDS011;26964;50.428;19.218;2023-07-20T00:01:00;15.8;;;7.2;;
41229;SDS011;26964;50.428;19.218;2023-07-20T00:02:00;8.4;;;5.9;;
41229;SDS011;26964;50.428;19.218;2023-07-20T00:04:00;8.7;;;5.6;;
41229;SDS011;26964;50.428;19.218;2023-07-20T00:05:01;11.1;;;6.0;;
41229;SDS011;26964;50.428;19.218;2023-07-20T00:06:00;11.4;;;5.9;;
41229;SDS011;26964;50.428;19.218;2023-07-20T00:07:01;12.7;;;6.3;;
41229;SDS011;26964;50.428;19.218;2023-07-20T00:08:00;12.3;;;5.9;;
41229;SDS011;26964;50.428;19.218;2023-07-20T00:09:00;13.7;;;6.1;;
41229;SDS011;26964;50.428;19.218;2023-07-20T00:10:00;11.3;;;6.0;;
41229;SDS011;26964;50.428;19.218;2023-07-20T00:11:00;9.1;;;5.3;;
41229;SDS011;26964;50.428;19.218;2023-07-20T00:12:00;8.6;;;5.8;;
41229;SDS011;26964;50.428;19.218;2023-07-20T00:13:00;10.1;;;5.9;;
41229;SDS011;26964;50.428;19.218;2023-07-20T00:14:00;7.5;;;5.2;;
41229;SDS011;26964;50.428;19.218;2023-07-20T00:15:00;9.1;;;5.7;;
41229;SDS011;26964;50.428;19.218;2023-07-20T00:16:00;12.8;;;5.8;;
41229;SDS011;26964;50.428;19.218;2023-07-20T00:17:00;11.5;;;6.7;;
41229;SDS011;26964;50.428;19.218;2023-07-20T00:18:00;12.5;;;6.0;;
41229;SDS011;26964;50.428;19.218;2023-07-20T00:19:00;10.3;;;6.0;;
41229;SDS011;26964;50.428;19.218;2023-07-20T00:20:00;14.1;;;6.3;;
41229;SDS011;26964;50.428;19.218;2023-07-20T00:21:00;10.0;;;6.2;;
41229;SDS011;26964;50.428;19.218;2023-07-20T00:22:00;9.9;;;6.6;;
41229;SDS011;26964;50.428;19.218;2023-07-20T00:23:00;12.2;;;6.6;;
41229;SDS011;26964;50.428;19.218;2023-07-20T00:24:00;13.6;;;6.2;;
41229;SDS011;26964;50.428;19.218;2023-07-20T00:25:00;13.4;;;6.9;;
41229;SDS011;26964;50.428;19.218;2023-07-20T00:26:00;11.7;;;6.0;;
41229;SDS011;26964;50.428;19.218;2023-07-20T00:27:00;11.9;;;6.4;;
41229;SDS011;26964;50.428;19.218;2023-07-20T00:28:00;11.5;;;6.0;;
41229;SDS011;26964;50.428;19.218;2023-07-20T00:29:00;11.8;;;6.0;;
41229;SDS011;26964;50.428;19.218;2023-07-20T00:30:00;13.0;;;5.7;;
41229;SDS011;26964;50.428;19.218;2023-07-20T00:31:00;11.3;;;6.5;;
41229;SDS011;26964;50.428;19.218;2023-07-20T00:32:01;14.0;;;6.6;;
41229;SDS011;26964;50.428;19.218;2023-07-20T00:33:00;10.2;;;6.2;;
41229;SDS011;26964;50.428;19.218;2023-07-20T00:34:00;12.3;;;6.9;;
41229;SDS011;26964;50.428;19.218;2023-07-20T00:35:00;15.5;;;6.7;;
41229;SDS011;26964;50.428;19.218;2023-07-20T00:36:00;10.9;;;5.8;;
41229;SDS011;26964;50.428;19.218;2023-07-20T00:37:00;11.2;;;6.8;;
41229;SDS011;26964;50.428;19.218;2023-07-20T00:38:00;15.2;;;6.9;;
41229;SDS011;26964;50.428;19.218;2023-07-20T00:39:00;12.6;;;6.9;;
41229;SDS011;26964;50.428;19.218;2023-07-20T00:40:00;16.2;;;6.9;;
41229;SDS011;26964;50.428;19.218;2023-07-20T00:41:00;12.0;;;7.0;;
41229;SDS011;26964;50.428;19.218;2023-07-20T00:42:00;11.6;;;6.2;;
41229;SDS011;26964;50.428;19.218;2023-07-20T00:43:00;11.8;;;6.9;;
41229;SDS011;26964;50.428;19.218;2023-07-20T00:44:00;12.1;;;7.3;;
41229;SDS011;26964;50.428;19.218;2023-07-20T00:45:00;12.0;;;6.7;;
41229;SDS011;26964;50.428;19.218;2023-07-20T00:46:00;21.5;;;7.0;;
41229;SDS011;26964;50.428;19.218;2023-07-20T00:47:00;10.5;;;6.5;;
41229;SDS011;26964;50.428;19.218;2023-07-20T00:48:00;10.5;;;6.0;;
41229;SDS011;26964;50.428;19.218;2023-07-20T00:49:00;13.1;;;6.5;;
41229;SDS011;26964;50.428;19.218;2023-07-20T00:50:00;13.5;;;6.4;;
41229;SDS011;26964;50.428;19.218;2023-07-20T00:51:00;12.7;;;6.8;;
41229;SDS011;26964;50.428;19.218;2023-07-20T00:52:00;11.0;;;5.7;;
41229;SDS011;26964;50.428;19.218;2023-07-20T00:53:00;13.3;;;6.6;;
41229;SDS011;26964;50.428;19.218;2023-07-20T00:54:00;10.6;;;5.8;;
41229;SDS011;26964;50.428;19.218;2023-07-20T00:55:00;13.4;;;7.0;;
41229;SDS011;26964;50.428;19.218;2023-07-20T00:56:00;13.9;;;7.7;;
41229;SDS011;26964;50.428;19.218;2023-07-20T00:57:00;8.1;;;5.0;;
41229;SDS011;26964;50.428;19.218;2023-07-20T00:58:00;10.3;;;3.9;;
41229;SDS011;26964;50.428;19.218;2023-07-20T00:59:00;9.2;;;4.2;;
41229;SDS011;26964;50.428;19.218;2023-07-20T01:00:00;11.9;;;4.2;;
41229;SDS011;26964;50.428;19.218;2023-07-20T01:01:01;8.7;;;3.8;;
41229;SDS011;26964;50.428;19.218;2023-07-20T01:02:00;6.3;;;3.4;;
41229;SDS011;26964;50.428;19.218;2023-07-20T01:03:00;10.1;;;4.6;;
41229;SDS011;26964;50.428;19.218;2023-07-20T01:04:00;8.9;;;3.0;;
41229;SDS011;26964;50.428;19.218;2023-07-20T01:04:59;12.6;;;3.9;;
41229;SDS011;26964;50.428;19.218;2023-07-20T01:06:01;6.7;;;3.2;;
41229;SDS011;26964;50.428;19.218;2023-07-20T01:07:03;7.5;;;3.1;;
41229;SDS011;26964;50.428;19.218;2023-07-20T01:08:00;8.3;;;3.5;;
41229;SDS011;26964;50.428;19.218;2023-07-20T01:09:02;6.3;;;3.1;;
41229;SDS011;26964;50.428;19.218;2023-07-20T01:10:01;11.2;;;3.8;;
41229;SDS011;26964;50.428;19.218;2023-07-20T01:11:01;10.1;;;3.7;;
41229;SDS011;26964;50.428;19.218;2023-07-20T01:12:01;6.6;;;3.7;;
41229;SDS011;26964;50.428;19.218;2023-07-20T01:13:01;7.0;;;3.6;;
41229;SDS011;26964;50.428;19.218;2023-07-20T01:13:59;7.5;;;3.3;;
41229;SDS011;26964;50.428;19.218;2023-07-20T01:15:00;6.6;;;3.6;;
41229;SDS011;26964;50.428;19.218;2023-07-20T01:16:00;5.8;;;3.5;;
41229;SDS011;26964;50.428;19.218;2023-07-20T01:17:00;6.3;;;3.1;;
41229;SDS011;26964;50.428;19.218;2023-07-20T01:18:00;8.9;;;3.3;;
41229;SDS011;26964;50.428;19.218;2023-07-20T01:19:00;10.8;;;3.7;;
41229;SDS011;26964;50.428;19.218;2023-07-20T01:20:00;6.4;;;3.5;;
41229;SDS011;26964;50.428;19.218;2023-07-20T01:21:06;8.4;;;3.6;;
41229;SDS011;26964;50.428;19.218;2023-07-20T01:22:02;9.2;;;3.4;;
41229;SDS011;26964;50.428;19.218;2023-07-20T01:23:06;15.2;;;4.0;;
41229;SDS011;26964;50.428;19.218;2023-07-20T01:31:59;7.9;;;4.5;;
41229;SDS011;26964;50.428;19.218;2023-07-20T01:32:59;7.2;;;3.6;;
41229;SDS011;26964;50.428;19.218;2023-07-20T01:34:00;7.7;;;3.8;;
41229;SDS011;26964;50.428;19.218;2023-07-20T01:34:59;6.1;;;3.3;;
41229;SDS011;26964;50.428;19.218;2023-07-20T01:36:00;4.9;;;3.3;;
41229;SDS011;26964;50.428;19.218;2023-07-20T01:37:00;7.9;;;3.3;;
41229;SDS011;26964;50.428;19.218;2023-07-20T01:37:59;6.2;;;3.2;;
41229;SDS011;26964;50.428;19.218;2023-07-20T01:39:00;7.6;;;3.6;;
41229;SDS011;26964;50.428;19.218;2023-07-20T01:39:59;6.8;;;3.6;;
41229;SDS011;26964;50.428;19.218;2023-07-20T01:40:59;8.4;;;4.3;;
41229;SDS011;26964;50.428;19.218;2023-07-20T01:42:00;8.3;;;3.7;;
41229;SDS011;26964;50.428;19.218;2023-07-20T01:42:59;7.0;;;3.7;;
41229;SDS011;26964;50.428;19.218;2023-07-20T01:43:59;6.9;;;3.3;;
41229;SDS011;26964;50.428;19.218;2023-07-20T01:44:59;6.4;;;3.0;;
41229;SDS011;26964;50.428;19.218;2023-07-20T01:46:00;8.2;;;4.0;;
41229;SDS011;26964;50.428;19.218;2023-07-20T01:47:00;6.6;;;3.5;;
41229;SDS011;26964;50.428;19.218;2023-07-20T01:48:00;8.5;;;4.1;;
41229;SDS011;26964;50.428;19.218;2023-07-20T01:48:59;10.3;;;4.0;;
41229;SDS011;26964;50.428;19.218;2023-07-20T01:50:00;7.5;;;3.6;;
41229;SDS011;26964;50.428;19.218;2023-07-20T01:50:59;5.5;;;3.2;;
41229;SDS011;26964;50.428;19.218;2023-07-20T01:51:59;4.5;;;3.4;;
41229;SDS011;26964;50.428;19.218;2023-07-20T01:52:59;9.3;;;4.0;;
41229;SDS011;26964;50.428;19.218;2023-07-20T01:53:59;6.4;;;3.3;;
41229;SDS011;26964;50.428;19.218;2023-07-20T01:54:59;8.7;;;3.3;;
41229;SDS011;26964;50.428;19.218;2023-07-20T01:55:59;6.9;;;3.4;;
41229;SDS011;26964;50.428;19.218;2023-07-20T01:57:00;7.3;;;3.6;;
41229;SDS011;26964;50.428;19.218;2023-07-20T01:57:59;5.8;;;3.3;;
41229;SDS011;26964;50.428;19.218;2023-07-20T01:59:00;8.9;;;3.4;;
41229;SDS011;26964;50.428;19.218;2023-07-20T02:00:00;6.1;;;3.7;;
41229;SDS011;26964;50.428;19.218;2023-07-20T02:01:00;6.5;;;3.9;;
41229;SDS011;26964;50.428;19.218;2023-07-20T02:01:59;7.7;;;3.7;;
41229;SDS011;26964;50.428;19.218;2023-07-20T02:02:59;7.6;;;3.4;;
41229;SDS011;26964;50.428;19.218;2023-07-20T02:03:59;8.0;;;3.9;;
41229;SDS011;26964;50.428;19.218;2023-07-20T02:04:59;7.4;;;3.7;;
41229;SDS011;26964;50.428;19.218;2023-07-20T02:05:59;6.2;;;3.6;;
41229;SDS011;26964;50.428;19.218;2023-07-20T02:06:59;8.6;;;3.6;;
41229;SDS011;26964;50.428;19.218;2023-07-20T02:07:59;7.4;;;3.9;;
41229;SDS011;26964;50.428;19.218;2023-07-20T02:09:00;6.6;;;3.5;;
41229;SDS011;26964;50.428;19.218;2023-07-20T02:09:59;5.6;;;3.0;;
41229;SDS011;26964;50.428;19.218;2023-07-20T02:10:59;8.7;;;3.3;;
41229;SDS011;26964;50.428;19.218;2023-07-20T02:11:59;6.0;;;3.0;;
41229;SDS011;26964;50.428;19.218;2023-07-20T02:12:59;8.4;;;3.2;;
41229;SDS011;26964;50.428;19.218;2023-07-20T02:13:59;8.5;;;4.1;;
41229;SDS011;26964;50.428;19.218;2023-07-20T02:14:59;8.7;;;3.4;;
41229;SDS011;26964;50.428;19.218;2023-07-20T02:15:59;8.0;;;3.2;;
41229;SDS011;26964;50.428;19.218;2023-07-20T02:16:59;8.3;;;3.2;;
41229;SDS011;26964;50.428;19.218;2023-07-20T02:18:00;7.3;;;3.6;;
41229;SDS011;26964;50.428;19.218;2023-07-20T02:18:59;6.8;;;3.4;;
41229;SDS011;26964;50.428;19.218;2023-07-20T02:19:59;6.2;;;3.4;;
41229;SDS011;26964;50.428;19.218;2023-07-20T02:21:00;6.5;;;3.4;;
41229;SDS011;26964;50.428;19.218;2023-07-20T02:21:59;8.8;;;3.6;;
41229;SDS011;26964;50.428;19.218;2023-07-20T02:23:00;6.4;;;3.0;;
41229;SDS011;26964;50.428;19.218;2023-07-20T02:23:59;6.8;;;3.2;;
41229;SDS011;26964;50.428;19.218;2023-07-20T02:24:59;6.7;;;3.5;;
41229;SDS011;26964;50.428;19.218;2023-07-20T02:25:59;7.3;;;3.4;;
41229;SDS011;26964;50.428;19.218;2023-07-20T02:26:59;5.3;;;3.2;;
41229;SDS011;26964;50.428;19.218;2023-07-20T02:27:59;7.8;;;3.4;;
41229;SDS011;26964;50.428;19.218;2023-07-20T02:28:59;8.8;;;3.6;;
41229;SDS011;26964;50.428;19.218;2023-07-20T02:29:59;8.2;;;3.6;;
41229;SDS011;26964;50.428;19.218;2023-07-20T02:30:59;10.0;;;3.7;;
41229;SDS011;26964;50.428;19.218;2023-07-20T02:32:00;7.2;;;3.8;;
41229;SDS011;26964;50.428;19.218;2023-07-20T02:32:59;5.5;;;3.0;;
41229;SDS011;26964;50.428;19.218;2023-07-20T02:33:59;5.1;;;2.8;;
41229;SDS011;26964;50.428;19.218;2023-07-20T02:34:59;9.4;;;3.8;;
41229;SDS011;26964;50.428;19.218;2023-07-20T02:35:59;6.0;;;3.2;;
41229;SDS011;26964;50.428;19.218;2023-07-20T02:37:00;7.5;;;3.9;;
41229;SDS011;26964;50.428;19.218;2023-07-20T02:37:59;6.3;;;3.2;;
41229;SDS011;26964;50.428;19.218;2023-07-20T02:38:59;5.7;;;3.0;;
41229;SDS011;26964;50.428;19.218;2023-07-20T02:39:59;6.7;;;2.8;;
41229;SDS011;26964;50.428;19.218;2023-07-20T02:41:00;6.5;;;3.2;;
41229;SDS011;26964;50.428;19.218;2023-07-20T02:41:59;9.5;;;3.5;;
41229;SDS011;26964;50.428;19.218;2023-07-20T02:43:00;8.4;;;3.4;;
41229;SDS011;26964;50.428;19.218;2023-07-20T02:43:59;6.1;;;3.5;;
41229;SDS011;26964;50.428;19.218;2023-07-20T02:44:59;5.3;;;3.5;;
41229;SDS011;26964;50.428;19.218;2023-07-20T02:45:59;6.7;;;3.6;;
41229;SDS011;26964;50.428;19.218;2023-07-20T02:46:59;6.4;;;3.5;;
41229;SDS011;26964;50.428;19.218;2023-07-20T02:47:59;6.6;;;3.3;;
41229;SDS011;26964;50.428;19.218;2023-07-20T02:48:59;6.4;;;3.2;;
41229;SDS011;26964;50.428;19.218;2023-07-20T02:49:59;6.2;;;3.1;;
41229;SDS011;26964;50.428;19.218;2023-07-20T02:50:59;7.6;;;3.5;;
41229;SDS011;26964;50.428;19.218;2023-07-20T02:51:59;6.8;;;3.4;;
41229;SDS011;26964;50.428;19.218;2023-07-20T02:52:59;5.6;;;3.0;;
41229;SDS011;26964;50.428;19.218;2023-07-20T02:53:59;6.9;;;3.5;;
41229;SDS011;26964;50.428;19.218;2023-07-20T02:54:59;6.9;;;3.0;;
41229;SDS011;26964;50.428;19.218;2023-07-20T02:55:59;5.4;;;3.1;;
41229;SDS011;26964;50.428;19.218;2023-07-20T02:56:59;6.3;;;3.4;;
41229;SDS011;26964;50.428;19.218;2023-07-20T02:57:59;8.0;;;3.6;;
41229;SDS011;26964;50.428;19.218;2023-07-20T02:59:00;6.2;;;3.0;;
41229;SDS011;26964;50.428;19.218;2023-07-20T02:59:59;5.5;;;3.0;;
41229;SDS011;26964;50.428;19.218;2023-07-20T03:00:59;4.9;;;2.8;;
41229;SDS011;26964;50.428;19.218;2023-07-20T03:01:59;6.3;;;3.3;;
41229;SDS011;26964;50.428;19.218;2023-07-20T03:02:59;7.6;;;3.7;;
41229;SDS011;26964;50.428;19.218;2023-07-20T03:03:59;8.0;;;3.6;;
41229;SDS011;26964;50.428;19.218;2023-07-20T03:05:00;6.7;;;3.3;;
41229;SDS011;26964;50.428;19.218;2023-07-20T03:05:59;6.2;;;3.7;;
41229;SDS011;26964;50.428;19.218;2023-07-20T03:06:59;6.3;;;3.8;;
41229;SDS011;26964;50.428;19.218;2023-07-20T03:07:59;7.7;;;3.3;;
41229;SDS011;26964;50.428;19.218;2023-07-20T03:08:59;5.3;;;3.2;;
41229;SDS011;26964;50.428;19.218;2023-07-20T03:09:59;6.4;;;3.6;;
41229;SDS011;26964;50.428;19.218;2023-07-20T03:10:59;6.0;;;2.9;;
41229;SDS011;26964;50.428;19.218;2023-07-20T03:11:59;7.3;;;3.4;;
41229;SDS011;26964;50.428;19.218;2023-07-20T03:12:59;8.2;;;3.8;;
41229;SDS011;26964;50.428;19.218;2023-07-20T03:13:59;9.0;;;4.2;;
41229;SDS011;26964;50.428;19.218;2023-07-20T03:14:59;6.1;;;3.6;;
41229;SDS011;26964;50.428;19.218;2023-07-20T03:16:00;9.1;;;3.5;;
41229;SDS011;26964;50.428;19.218;2023-07-20T03:16:59;10.5;;;3.9;;
41229;SDS011;26964;50.428;19.218;2023-07-20T03:17:59;8.9;;;3.4;;
41229;SDS011;26964;50.428;19.218;2023-07-20T03:18:59;6.9;;;3.4;;
41229;SDS011;26964;50.428;19.218;2023-07-20T03:19:59;9.7;;;3.7;;
41229;SDS011;26964;50.428;19.218;2023-07-20T03:20:59;8.1;;;3.5;;
41229;SDS011;26964;50.428;19.218;2023-07-20T03:21:59;8.3;;;3.9;;
41229;SDS011;26964;50.428;19.218;2023-07-20T03:22:59;8.1;;;3.5;;
41229;SDS011;26964;50.428;19.218;2023-07-20T03:23:59;10.4;;;4.5;;
41229;SDS011;26964;50.428;19.218;2023-07-20T03:24:59;8.9;;;3.6;;
41229;SDS011;26964;50.428;19.218;2023-07-20T03:26:00;6.8;;;3.6;;
41229;SDS011;26964;50.428;19.218;2023-07-20T03:26:59;9.3;;;3.7;;
41229;SDS011;26964;50.428;19.218;2023-07-20T03:27:59;7.1;;;3.1;;
41229;SDS011;26964;50.428;19.218;2023-07-20T03:28:59;8.1;;;3.6;;
41229;SDS011;26964;50.428;19.218;2023-07-20T03:29:59;8.1;;;4.4;;
41229;SDS011;26964;50.428;19.218;2023-07-20T03:30:59;9.6;;;3.7;;
41229;SDS011;26964;50.428;19.218;2023-07-20T03:31:59;9.3;;;4.2;;
41229;SDS011;26964;50.428;19.218;2023-07-20T03:32:59;8.9;;;3.8;;
41229;SDS011;26964;50.428;19.218;2023-07-20T03:33:59;7.1;;;4.1;;
41229;SDS011;26964;50.428;19.218;2023-07-20T03:34:59;11.6;;;4.2;;
41229;SDS011;26964;50.428;19.218;2023-07-20T03:35:59;8.0;;;3.4;;
41229;SDS011;26964;50.428;19.218;2023-07-20T03:36:59;8.0;;;3.5;;
41229;SDS011;26964;50.428;19.218;2023-07-20T03:38:00;6.6;;;3.4;;
41229;SDS011;26964;50.428;19.218;2023-07-20T03:38:59;20.4;;;3.8;;
41229;SDS011;26964;50.428;19.218;2023-07-20T03:39:59;8.7;;;3.8;;
41229;SDS011;26964;50.428;19.218;2023-07-20T03:41:00;9.1;;;4.2;;
41229;SDS011;26964;50.428;19.218;2023-07-20T03:41:59;7.3;;;3.3;;
41229;SDS011;26964;50.428;19.218;2023-07-20T03:42:59;6.0;;;3.7;;
41229;SDS011;26964;50.428;19.218;2023-07-20T03:43:59;7.1;;;3.8;;
41229;SDS011;26964;50.428;19.218;2023-07-20T03:44:59;6.8;;;3.8;;
41229;SDS011;26964;50.428;19.218;2023-07-20T03:45:59;6.2;;;3.6;;
41229;SDS011;26964;50.428;19.218;2023-07-20T03:46:59;7.2;;;4.1;;
41229;SDS011;26964;50.428;19.218;2023-07-20T03:47:59;7.5;;;4.2;;
41229;SDS011;26964;50.428;19.218;2023-07-20T03:48:59;6.4;;;3.7;;
41229;SDS011;26964;50.428;19.218;2023-07-20T03:49:59;9.7;;;3.4;;
41229;SDS011;26964;50.428;19.218;2023-07-20T03:50:59;9.1;;;4.1;;
41229;SDS011;26964;50.428;19.218;2023-07-20T03:52:00;6.8;;;3.6;;
41229;SDS011;26964;50.428;19.218;2023-07-20T03:52:59;8.2;;;4.0;;
41229;SDS011;26964;50.428;19.218;2023-07-20T03:53:59;6.7;;;4.2;;
41229;SDS011;26964;50.428;19.218;2023-07-20T03:54:59;5.9;;;3.6;;
41229;SDS011;26964;50.428;19.218;2023-07-20T03:55:59;8.7;;;4.0;;
41229;SDS011;26964;50.428;19.218;2023-07-20T03:56:59;8.8;;;3.9;;
41229;SDS011;26964;50.428;19.218;2023-07-20T03:57:59;7.0;;;3.1;;
41229;SDS011;26964;50.428;19.218;2023-07-20T03:58:59;8.1;;;3.7;;
41229;SDS011;26964;50.428;19.218;2023-07-20T03:59:59;6.5;;;3.7;;
41229;SDS011;26964;50.428;19.218;2023-07-20T04:00:59;7.3;;;3.8;;
41229;SDS011;26964;50.428;19.218;2023-07-20T04:01:59;7.8;;;3.7;;
41229;SDS011;26964;50.428;19.218;2023-07-20T04:02:59;8.4;;;3.8;;
41229;SDS011;26964;50.428;19.218;2023-07-20T04:03:59;5.6;;;3.6;;
41229;SDS011;26964;50.428;19.218;2023-07-20T04:04:59;5.8;;;3.6;;
41229;SDS011;26964;50.428;19.218;2023-07-20T04:05:59;7.5;;;4.2;;
41229;SDS011;26964;50.428;19.218;2023-07-20T04:06:59;7.3;;;3.2;;
41229;SDS011;26964;50.428;19.218;2023-07-20T04:07:59;6.2;;;3.7;;
41229;SDS011;26964;50.428;19.218;2023-07-20T04:08:59;6.8;;;3.7;;
41229;SDS011;26964;50.428;19.218;2023-07-20T04:09:59;6.2;;;3.7;;
41229;SDS011;26964;50.428;19.218;2023-07-20T04:11:00;7.5;;;4.0;;
41229;SDS011;26964;50.428;19.218;2023-07-20T04:11:59;6.1;;;3.5;;
41229;SDS011;26964;50.428;19.218;2023-07-20T04:13:00;9.1;;;3.8;;
41229;SDS011;26964;50.428;19.218;2023-07-20T04:13:59;7.8;;;4.0;;
41229;SDS011;26964;50.428;19.218;2023-07-20T04:14:59;7.6;;;4.0;;
41229;SDS011;26964;50.428;19.218;2023-07-20T04:15:59;8.8;;;4.3;;
41229;SDS011;26964;50.428;19.218;2023-07-20T04:16:59;8.5;;;3.8;;
41229;SDS011;26964;50.428;19.218;2023-07-20T04:17:59;5.9;;;3.8;;
41229;SDS011;26964;50.428;19.218;2023-07-20T04:18:59;5.3;;;3.3;;
41229;SDS011;26964;50.428;19.218;2023-07-20T04:19:59;8.6;;;3.6;;
41229;SDS011;26964;50.428;19.218;2023-07-20T04:20:59;6.7;;;3.2;;
41229;SDS011;26964;50.428;19.218;2023-07-20T04:22:00;7.0;;;3.8;;
41229;SDS011;26964;50.428;19.218;2023-07-20T04:22:59;7.5;;;3.8;;
41229;SDS011;26964;50.428;19.218;2023-07-20T04:23:59;7.0;;;3.9;;
41229;SDS011;26964;50.428;19.218;2023-07-20T04:24:59;7.0;;;4.6;;
41229;SDS011;26964;50.428;19.218;2023-07-20T04:25:59;8.0;;;4.1;;
41229;SDS011;26964;50.428;19.218;2023-07-20T04:26:59;6.8;;;3.7;;
41229;SDS011;26964;50.428;19.218;2023-07-20T04:27:59;7.6;;;4.0;;
41229;SDS011;26964;50.428;19.218;2023-07-20T04:28:59;8.8;;;4.6;;
41229;SDS011;26964;50.428;19.218;2023-07-20T04:29:59;7.6;;;4.2;;
41229;SDS011;26964;50.428;19.218;2023-07-20T04:31:59;7.5;;;4.6;;
41229;SDS011;26964;50.428;19.218;2023-07-20T04:33:00;8.3;;;3.8;;
41229;SDS011;26964;50.428;19.218;2023-07-20T04:33:59;9.0;;;4.0;;
41229;SDS011;26964;50.428;19.218;2023-07-20T04:34:59;10.4;;;5.1;;
41229;SDS011;26964;50.428;19.218;2023-07-20T04:35:59;7.6;;;4.0;;
41229;SDS011;26964;50.428;19.218;2023-07-20T04:37:00;7.9;;;4.0;;
41229;SDS011;26964;50.428;19.218;2023-07-20T04:38:00;6.8;;;3.9;;
41229;SDS011;26964;50.428;19.218;2023-07-20T04:38:59;6.2;;;3.6;;
41229;SDS011;26964;50.428;19.218;2023-07-20T04:40:00;14.8;;;4.7;;
41229;SDS011;26964;50.428;19.218;2023-07-20T04:40:59;7.3;;;4.0;;
41229;SDS011;26964;50.428;19.218;2023-07-20T04:41:59;7.0;;;4.2;;
41229;SDS011;26964;50.428;19.218;2023-07-20T04:42:59;9.4;;;4.3;;
41229;SDS011;26964;50.428;19.218;2023-07-20T04:43:59;7.9;;;4.5;;
41229;SDS011;26964;50.428;19.218;2023-07-20T04:44:59;7.9;;;4.3;;
41229;SDS011;26964;50.428;19.218;2023-07-20T04:45:59;7.5;;;4.6;;
41229;SDS011;26964;50.428;19.218;2023-07-20T04:46:59;8.8;;;4.7;;
41229;SDS011;26964;50.428;19.218;2023-07-20T04:47:59;6.4;;;4.1;;
41229;SDS011;26964;50.428;19.218;2023-07-20T04:48:59;6.9;;;4.1;;
41229;SDS011;26964;50.428;19.218;2023-07-20T04:49:59;10.7;;;4.9;;
41229;SDS011;26964;50.428;19.218;2023-07-20T04:50:59;8.6;;;5.2;;
41229;SDS011;26964;50.428;19.218;2023-07-20T04:51:59;9.6;;;4.9;;
41229;SDS011;26964;50.428;19.218;2023-07-20T04:52:59;9.4;;;5.2;;
41229;SDS011;26964;50.428;19.218;2023-07-20T04:53:59;9.2;;;5.1;;
41229;SDS011;26964;50.428;19.218;2023-07-20T04:54:59;9.8;;;4.8;;
41229;SDS011;26964;50.428;19.218;2023-07-20T04:55:59;12.4;;;4.9;;
41229;SDS011;26964;50.428;19.218;2023-07-20T04:56:59;11.6;;;5.8;;
41229;SDS011;26964;50.428;19.218;2023-07-20T04:57:59;8.4;;;4.8;;
41229;SDS011;26964;50.428;19.218;2023-07-20T04:58:59;8.9;;;5.3;;
41229;SDS011;26964;50.428;19.218;2023-07-20T04:59:59;7.8;;;5.1;;
41229;SDS011;26964;50.428;19.218;2023-07-20T05:00:59;9.6;;;5.3;;
41229;SDS011;26964;50.428;19.218;2023-07-20T05:01:59;10.0;;;5.4;;
41229;SDS011;26964;50.428;19.218;2023-07-20T05:02:59;9.1;;;5.2;;
41229;SDS011;26964;50.428;19.218;2023-07-20T05:03:59;8.3;;;5.4;;
41229;SDS011;26964;50.428;19.218;2023-07-20T05:04:59;7.4;;;4.7;;
41229;SDS011;26964;50.428;19.218;2023-07-20T05:05:59;8.3;;;5.1;;
41229;SDS011;26964;50.428;19.218;2023-07-20T05:06:59;6.3;;;4.5;;
41229;SDS011;26964;50.428;19.218;2023-07-20T05:07:59;7.8;;;4.8;;
41229;SDS011;26964;50.428;19.218;2023-07-20T05:08:59;7.4;;;4.4;;
41229;SDS011;26964;50.428;19.218;2023-07-20T05:09:59;8.1;;;4.9;;
41229;SDS011;26964;50.428;19.218;2023-07-20T05:10:59;9.4;;;5.6;;
41229;SDS011;26964;50.428;19.218;2023-07-20T05:11:59;7.5;;;4.7;;
41229;SDS011;26964;50.428;19.218;2023-07-20T05:12:59;8.2;;;4.6;;
41229;SDS011;26964;50.428;19.218;2023-07-20T05:13:59;8.5;;;4.9;;
41229;SDS011;26964;50.428;19.218;2023-07-20T05:14:59;9.1;;;5.5;;
41229;SDS011;26964;50.428;19.218;2023-07-20T05:15:59;8.8;;;5.3;;
41229;SDS011;26964;50.428;19.218;2023-07-20T05:16:59;10.1;;;5.5;;
41229;SDS011;26964;50.428;19.218;2023-07-20T05:17:59;9.5;;;5.4;;
41229;SDS011;26964;50.428;19.218;2023-07-20T05:18:59;7.2;;;5.1;;
41229;SDS011;26964;50.428;19.218;2023-07-20T05:19:59;7.1;;;4.9;;
41229;SDS011;26964;50.428;19.218;2023-07-20T05:20:59;8.0;;;4.4;;
41229;SDS011;26964;50.428;19.218;2023-07-20T05:21:59;10.4;;;5.3;;
41229;SDS011;26964;50.428;19.218;2023-07-20T05:22:59;6.6;;;4.4;;
41229;SDS011;26964;50.428;19.218;2023-07-20T05:23:59;7.6;;;4.6;;
41229;SDS011;26964;50.428;19.218;2023-07-20T05:24:59;7.3;;;4.6;;
41229;SDS011;26964;50.428;19.218;2023-07-20T05:25:59;9.1;;;4.5;;
41229;SDS011;26964;50.428;19.218;2023-07-20T05:26:59;7.3;;;5.0;;
41229;SDS011;26964;50.428;19.218;2023-07-20T05:27:59;7.3;;;4.5;;
41229;SDS011;26964;50.428;19.218;2023-07-20T05:28:59;8.0;;;5.0;;
41229;SDS011;26964;50.428;19.218;2023-07-20T05:29:59;8.5;;;4.8;;
41229;SDS011;26964;50.428;19.218;2023-07-20T05:30:59;8.4;;;5.1;;
41229;SDS011;26964;50.428;19.218;2023-07-20T05:31:59;8.1;;;4.8;;
41229;SDS011;26964;50.428;19.218;2023-07-20T05:32:59;7.6;;;4.7;;
41229;SDS011;26964;50.428;19.218;2023-07-20T05:33:59;7.8;;;4.5;;
41229;SDS011;26964;50.428;19.218;2023-07-20T05:34:59;7.7;;;4.9;;
41229;SDS011;26964;50.428;19.218;2023-07-20T05:35:59;7.9;;;4.7;;
41229;SDS011;26964;50.428;19.218;2023-07-20T05:36:59;9.5;;;4.7;;
41229;SDS011;26964;50.428;19.218;2023-07-20T05:37:59;9.7;;;5.3;;
41229;SDS011;26964;50.428;19.218;2023-07-20T05:38:59;8.8;;;5.0;;
41229;SDS011;26964;50.428;19.218;2023-07-20T05:39:59;7.2;;;4.6;;
41229;SDS011;26964;50.428;19.218;2023-07-20T05:40:59;8.1;;;4.9;;
41229;SDS011;26964;50.428;19.218;2023-07-20T05:41:59;6.6;;;4.8;;
41229;SDS011;26964;50.428;19.218;2023-07-20T05:42:59;7.4;;;4.4;;
41229;SDS011;26964;50.428;19.218;2023-07-20T05:43:59;8.8;;;5.1;;
41229;SDS011;26964;50.428;19.218;2023-07-20T05:44:59;8.0;;;4.5;;
41229;SDS011;26964;50.428;19.218;2023-07-20T05:45:59;10.0;;;4.9;;
41229;SDS011;26964;50.428;19.218;2023-07-20T05:46:59;7.1;;;4.8;;
41229;SDS011;26964;50.428;19.218;2023-07-20T05:47:59;7.3;;;5.1;;
41229;SDS011;26964;50.428;19.218;2023-07-20T05:48:59;7.7;;;5.0;;
41229;SDS011;26964;50.428;19.218;2023-07-20T05:49:59;10.2;;;4.9;;
41229;SDS011;26964;50.428;19.218;2023-07-20T05:50:59;7.8;;;4.6;;
41229;SDS011;26964;50.428;19.218;2023-07-20T05:51:59;9.3;;;5.0;;
41229;SDS011;26964;50.428;19.218;2023-07-20T05:52:59;9.0;;;4.9;;
41229;SDS011;26964;50.428;19.218;2023-07-20T05:53:59;8.1;;;4.4;;
41229;SDS011;26964;50.428;19.218;2023-07-20T05:54:59;8.6;;;4.7;;
41229;SDS011;26964;50.428;19.218;2023-07-20T05:55:59;6.3;;;4.6;;
41229;SDS011;26964;50.428;19.218;2023-07-20T05:56:59;9.3;;;5.1;;
41229;SDS011;26964;50.428;19.218;2023-07-20T05:57:59;8.9;;;5.0;;
41229;SDS011;26964;50.428;19.218;2023-07-20T05:58:59;7.7;;;4.8;;
41229;SDS011;26964;50.428;19.218;2023-07-20T05:59:59;8.5;;;4.3;;
41229;SDS011;26964;50.428;19.218;2023-07-20T06:00:59;10.7;;;4.5;;
41229;SDS011;26964;50.428;19.218;2023-07-20T06:01:59;7.6;;;4.7;;
41229;SDS011;26964;50.428;19.218;2023-07-20T06:02:59;7.8;;;4.2;;
41229;SDS011;26964;50.428;19.218;2023-07-20T06:03:59;9.8;;;5.1;;
41229;SDS011;26964;50.428;19.218;2023-07-20T06:04:59;11.1;;;4.9;;
41229;SDS011;26964;50.428;19.218;2023-07-20T06:05:59;10.7;;;4.6;;
41229;SDS011;26964;50.428;19.218;2023-07-20T06:06:59;10.2;;;5.1;;
41229;SDS011;26964;50.428;19.218;2023-07-20T06:07:59;7.3;;;4.4;;
41229;SDS011;26964;50.428;19.218;2023-07-20T06:08:59;11.4;;;5.6;;
41229;SDS011;26964;50.428;19.218;2023-07-20T06:09:59;7.3;;;4.2;;
41229;SDS011;26964;50.428;19.218;2023-07-20T06:11:01;9.4;;;4.6;;
41229;SDS011;26964;50.428;19.218;2023-07-20T06:11:59;9.2;;;4.5;;
41229;SDS011;26964;50.428;19.218;2023-07-20T06:12:59;7.6;;;4.4;;
41229;SDS011;26964;50.428;19.218;2023-07-20T06:13:59;11.7;;;4.8;;
41229;SDS011;26964;50.428;19.218;2023-07-20T06:15:24;7.2;;;4.3;;